sensor_id;sensor_type;location;lat;lon;timestamp;P1;durP1;ratioP1;P2;durP2;ratioP2
79212;SDS011;68639;52.380;9.822;2023-10-09T00:01:12;3.30;;;1.27;;
79212;SDS011;68639;52.380;9.822;2023-10-09T00:03:41;3.88;;;1.20;;
79212;SDS011;68639;52.380;9.822;2023-10-09T00:06:07;2.90;;;1.20;;
79212;SDS011;68639;52.380;9.822;2023-10-09T00:08:32;4.43;;;1.35;;
79212;SDS011;68639;52.380;9.822;2023-10-09T00:11:00;6.30;;;1.00;;
79212;SDS011;68639;52.380;9.822;2023-10-09T00:13:39;4.22;;;1.23;;
79212;SDS011;68639;52.380;9.822;2023-10-09T00:16:13;3.53;;;1.40;;
79212;SDS011;68639;52.380;9.822;2023-10-09T00:18:41;3.90;;;1.20;;
79212;SDS011;68639;52.380;9.822;2023-10-09T00:21:18;3.63;;;1.20;;
79212;SDS011;68639;52.380;9.822;2023-10-09T00:23:47;3.70;;;1.30;;
79212;SDS011;68639;52.380;9.822;2023-10-09T00:26:18;3.67;;;1.30;;
79212;SDS011;68639;52.380;9.822;2023-10-09T00:28:46;3.80;;;1.15;;
79212;SDS011;68639;52.380;9.822;2023-10-09T00:31:16;3.72;;;1.20;;
79212;SDS011;68639;52.380;9.822;2023-10-09T00:33:51;3.17;;;1.00;;
79212;SDS011;68639;52.380;9.822;2023-10-09T00:36:17;3.40;;;1.08;;
79212;SDS011;68639;52.380;9.822;2023-10-09T00:38:44;4.90;;;1.33;;
79212;SDS011;68639;52.380;9.822;2023-10-09T00:41:16;5.25;;;1.20;;
79212;SDS011;68639;52.380;9.822;2023-10-09T00:43:46;4.45;;;1.20;;
79212;SDS011;68639;52.380;9.822;2023-10-09T00:46:14;3.25;;;1.10;;
79212;SDS011;68639;52.380;9.822;2023-10-09T00:48:46;5.22;;;1.20;;
79212;SDS011;68639;52.380;9.822;2023-10-09T00:51:13;3.67;;;1.20;;
79212;SDS011;68639;52.380;9.822;2023-10-09T00:53:44;4.20;;;1.10;;
79212;SDS011;68639;52.380;9.822;2023-10-09T00:56:10;3.20;;;1.38;;
79212;SDS011;68639;52.380;9.822;2023-10-09T00:58:54;4.43;;;1.17;;
79212;SDS011;68639;52.380;9.822;2023-10-09T01:01:26;7.45;;;1.30;;
79212;SDS011;68639;52.380;9.822;2023-10-09T01:04:00;4.35;;;1.30;;
79212;SDS011;68639;52.380;9.822;2023-10-09T01:06:30;4.13;;;1.38;;
79212;SDS011;68639;52.380;9.822;2023-10-09T01:08:58;2.40;;;1.20;;
79212;SDS011;68639;52.380;9.822;2023-10-09T01:11:34;3.88;;;1.40;;
79212;SDS011;68639;52.380;9.822;2023-10-09T01:14:07;4.97;;;1.60;;
79212;SDS011;68639;52.380;9.822;2023-10-09T01:16:32;5.38;;;1.45;;
79212;SDS011;68639;52.380;9.822;2023-10-09T01:18:58;3.03;;;1.35;;
79212;SDS011;68639;52.380;9.822;2023-10-09T01:21:23;7.00;;;1.42;;
79212;SDS011;68639;52.380;9.822;2023-10-09T01:23:49;3.70;;;1.30;;
79212;SDS011;68639;52.380;9.822;2023-10-09T01:26:39;5.82;;;1.50;;
79212;SDS011;68639;52.380;9.822;2023-10-09T01:29:09;5.93;;;1.77;;
79212;SDS011;68639;52.380;9.822;2023-10-09T01:31:39;4.38;;;1.60;;
79212;SDS011;68639;52.380;9.822;2023-10-09T01:34:09;6.63;;;1.67;;
79212;SDS011;68639;52.380;9.822;2023-10-09T01:36:37;3.70;;;1.60;;
79212;SDS011;68639;52.380;9.822;2023-10-09T01:39:04;7.45;;;2.03;;
79212;SDS011;68639;52.380;9.822;2023-10-09T01:41:35;5.00;;;1.55;;
79212;SDS011;68639;52.380;9.822;2023-10-09T01:44:03;5.00;;;1.70;;
79212;SDS011;68639;52.380;9.822;2023-10-09T01:46:37;4.97;;;1.60;;
79212;SDS011;68639;52.380;9.822;2023-10-09T01:49:03;9.77;;;1.80;;
79212;SDS011;68639;52.380;9.822;2023-10-09T01:51:36;4.85;;;1.83;;
79212;SDS011;68639;52.380;9.822;2023-10-09T01:54:03;4.25;;;1.70;;
79212;SDS011;68639;52.380;9.822;2023-10-09T01:56:28;4.72;;;1.70;;
79212;SDS011;68639;52.380;9.822;2023-10-09T01:58:54;6.60;;;1.65;;
79212;SDS011;68639;52.380;9.822;2023-10-09T02:01:22;8.20;;;1.58;;
79212;SDS011;68639;52.380;9.822;2023-10-09T02:03:47;6.13;;;1.63;;
79212;SDS011;68639;52.380;9.822;2023-10-09T02:06:16;8.90;;;1.95;;
79212;SDS011;68639;52.380;9.822;2023-10-09T02:08:55;5.82;;;2.05;;
79212;SDS011;68639;52.380;9.822;2023-10-09T02:11:21;5.53;;;2.08;;
79212;SDS011;68639;52.380;9.822;2023-10-09T02:14:01;7.32;;;1.85;;
79212;SDS011;68639;52.380;9.822;2023-10-09T02:16:27;8.18;;;2.25;;
79212;SDS011;68639;52.380;9.822;2023-10-09T02:18:55;6.25;;;2.00;;
79212;SDS011;68639;52.380;9.822;2023-10-09T02:21:24;8.68;;;2.45;;
79212;SDS011;68639;52.380;9.822;2023-10-09T02:23:58;4.88;;;2.40;;
79212;SDS011;68639;52.380;9.822;2023-10-09T02:26:28;7.88;;;2.42;;
79212;SDS011;68639;52.380;9.822;2023-10-09T02:29:11;7.93;;;2.35;;
79212;SDS011;68639;52.380;9.822;2023-10-09T02:31:49;8.80;;;3.08;;
79212;SDS011;68639;52.380;9.822;2023-10-09T02:34:16;6.32;;;2.47;;
79212;SDS011;68639;52.380;9.822;2023-10-09T02:36:42;6.95;;;2.47;;
79212;SDS011;68639;52.380;9.822;2023-10-09T02:39:07;9.98;;;3.00;;
79212;SDS011;68639;52.380;9.822;2023-10-09T02:41:46;12.00;;;2.90;;
79212;SDS011;68639;52.380;9.822;2023-10-09T02:44:15;8.77;;;2.53;;
79212;SDS011;68639;52.380;9.822;2023-10-09T02:46:40;6.70;;;2.88;;
79212;SDS011;68639;52.380;9.822;2023-10-09T02:49:06;6.10;;;2.53;;
79212;SDS011;68639;52.380;9.822;2023-10-09T02:51:31;7.70;;;2.58;;
79212;SDS011;68639;52.380;9.822;2023-10-09T02:54:06;7.43;;;2.88;;
79212;SDS011;68639;52.380;9.822;2023-10-09T02:56:57;7.30;;;3.45;;
79212;SDS011;68639;52.380;9.822;2023-10-09T02:59:35;6.85;;;2.95;;
79212;SDS011;68639;52.380;9.822;2023-10-09T03:02:03;7.20;;;2.90;;
79212;SDS011;68639;52.380;9.822;2023-10-09T03:04:28;8.63;;;3.33;;
79212;SDS011;68639;52.380;9.822;2023-10-09T03:06:57;9.20;;;3.30;;
79212;SDS011;68639;52.380;9.822;2023-10-09T03:09:22;8.02;;;3.13;;
79212;SDS011;68639;52.380;9.822;2023-10-09T03:11:57;12.07;;;3.67;;
79212;SDS011;68639;52.380;9.822;2023-10-09T03:14:31;10.40;;;3.65;;
79212;SDS011;68639;52.380;9.822;2023-10-09T03:16:57;9.52;;;3.20;;
79212;SDS011;68639;52.380;9.822;2023-10-09T03:19:26;12.23;;;3.28;;
79212;SDS011;68639;52.380;9.822;2023-10-09T03:21:52;10.85;;;3.45;;
79212;SDS011;68639;52.380;9.822;2023-10-09T03:24:17;9.95;;;3.33;;
79212;SDS011;68639;52.380;9.822;2023-10-09T03:26:43;8.13;;;3.30;;
79212;SDS011;68639;52.380;9.822;2023-10-09T03:29:10;8.95;;;3.28;;
79212;SDS011;68639;52.380;9.822;2023-10-09T03:31:36;7.93;;;3.30;;
79212;SDS011;68639;52.380;9.822;2023-10-09T03:34:02;10.65;;;3.75;;
79212;SDS011;68639;52.380;9.822;2023-10-09T03:36:27;10.07;;;3.20;;
79212;SDS011;68639;52.380;9.822;2023-10-09T03:38:54;10.00;;;3.42;;
79212;SDS011;68639;52.380;9.822;2023-10-09T03:41:20;10.50;;;3.70;;
79212;SDS011;68639;52.380;9.822;2023-10-09T03:43:46;12.30;;;3.85;;
79212;SDS011;68639;52.380;9.822;2023-10-09T03:46:11;10.38;;;3.92;;
79212;SDS011;68639;52.380;9.822;2023-10-09T03:48:46;9.90;;;3.90;;
79212;SDS011;68639;52.380;9.822;2023-10-09T03:51:11;9.05;;;4.20;;
79212;SDS011;68639;52.380;9.822;2023-10-09T03:53:38;11.00;;;4.60;;
79212;SDS011;68639;52.380;9.822;2023-10-09T03:56:07;9.32;;;4.28;;
79212;SDS011;68639;52.380;9.822;2023-10-09T03:58:41;11.48;;;4.72;;
79212;SDS011;68639;52.380;9.822;2023-10-09T04:01:10;15.63;;;4.78;;
79212;SDS011;68639;52.380;9.822;2023-10-09T04:03:42;15.07;;;4.90;;
79212;SDS011;68639;52.380;9.822;2023-10-09T04:06:07;11.55;;;4.85;;
79212;SDS011;68639;52.380;9.822;2023-10-09T04:08:35;15.13;;;5.15;;
79212;SDS011;68639;52.380;9.822;2023-10-09T04:11:00;12.95;;;5.25;;
79212;SDS011;68639;52.380;9.822;2023-10-09T04:13:31;12.95;;;5.30;;
79212;SDS011;68639;52.380;9.822;2023-10-09T04:16:02;16.08;;;5.68;;
79212;SDS011;68639;52.380;9.822;2023-10-09T04:18:35;13.88;;;6.25;;
79212;SDS011;68639;52.380;9.822;2023-10-09T04:21:03;18.08;;;7.13;;
79212;SDS011;68639;52.380;9.822;2023-10-09T04:23:44;15.02;;;6.82;;
79212;SDS011;68639;52.380;9.822;2023-10-09T04:26:33;22.15;;;7.40;;
79212;SDS011;68639;52.380;9.822;2023-10-09T04:29:00;20.13;;;7.10;;
79212;SDS011;68639;52.380;9.822;2023-10-09T04:31:26;18.60;;;7.72;;
79212;SDS011;68639;52.380;9.822;2023-10-09T04:33:57;22.77;;;8.32;;
79212;SDS011;68639;52.380;9.822;2023-10-09T04:36:45;21.33;;;8.63;;
79212;SDS011;68639;52.380;9.822;2023-10-09T04:39:14;23.30;;;9.43;;
79212;SDS011;68639;52.380;9.822;2023-10-09T04:41:57;37.47;;;10.80;;
79212;SDS011;68639;52.380;9.822;2023-10-09T04:44:41;30.33;;;10.93;;
79212;SDS011;68639;52.380;9.822;2023-10-09T04:47:30;30.75;;;11.38;;
79212;SDS011;68639;52.380;9.822;2023-10-09T04:50:03;36.70;;;12.80;;
79212;SDS011;68639;52.380;9.822;2023-10-09T04:52:36;33.42;;;14.25;;
79212;SDS011;68639;52.380;9.822;2023-10-09T04:55:02;29.80;;;13.38;;
79212;SDS011;68639;52.380;9.822;2023-10-09T04:57:45;36.00;;;15.18;;
79212;SDS011;68639;52.380;9.822;2023-10-09T05:00:25;47.38;;;17.60;;
79212;SDS011;68639;52.380;9.822;2023-10-09T05:02:51;40.70;;;18.23;;
79212;SDS011;68639;52.380;9.822;2023-10-09T05:05:20;50.00;;;20.23;;
79212;SDS011;68639;52.380;9.822;2023-10-09T05:08:04;56.72;;;20.77;;
79212;SDS011;68639;52.380;9.822;2023-10-09T05:10:54;60.75;;;22.25;;
79212;SDS011;68639;52.380;9.822;2023-10-09T05:13:26;51.45;;;22.95;;
79212;SDS011;68639;52.380;9.822;2023-10-09T05:16:07;59.63;;;23.90;;
79212;SDS011;68639;52.380;9.822;2023-10-09T05:18:50;57.30;;;24.77;;
79212;SDS011;68639;52.380;9.822;2023-10-09T05:21:34;71.53;;;28.55;;
79212;SDS011;68639;52.380;9.822;2023-10-09T05:24:09;85.25;;;31.65;;
79212;SDS011;68639;52.380;9.822;2023-10-09T05:26:36;94.63;;;34.30;;
79212;SDS011;68639;52.380;9.822;2023-10-09T05:29:11;86.55;;;33.13;;
79212;SDS011;68639;52.380;9.822;2023-10-09T05:31:55;76.50;;;31.67;;
79212;SDS011;68639;52.380;9.822;2023-10-09T05:34:22;95.88;;;35.40;;
79212;SDS011;68639;52.380;9.822;2023-10-09T05:36:48;90.32;;;35.47;;
79212;SDS011;68639;52.380;9.822;2023-10-09T05:39:13;99.88;;;35.03;;
79212;SDS011;68639;52.380;9.822;2023-10-09T05:42:05;92.80;;;34.92;;
79212;SDS011;68639;52.380;9.822;2023-10-09T05:44:34;86.85;;;34.83;;
79212;SDS011;68639;52.380;9.822;2023-10-09T05:47:18;98.97;;;36.05;;
79212;SDS011;68639;52.380;9.822;2023-10-09T05:50:04;76.88;;;31.92;;
79212;SDS011;68639;52.380;9.822;2023-10-09T05:52:32;87.90;;;34.15;;
79212;SDS011;68639;52.380;9.822;2023-10-09T05:55:18;82.63;;;32.58;;
79212;SDS011;68639;52.380;9.822;2023-10-09T05:57:52;80.97;;;32.53;;
79212;SDS011;68639;52.380;9.822;2023-10-09T06:00:23;75.10;;;31.95;;
79212;SDS011;68639;52.380;9.822;2023-10-09T06:03:07;79.90;;;32.13;;
79212;SDS011;68639;52.380;9.822;2023-10-09T06:05:48;76.22;;;32.20;;
79212;SDS011;68639;52.380;9.822;2023-10-09T06:08:25;85.85;;;32.88;;
79212;SDS011;68639;52.380;9.822;2023-10-09T06:11:15;83.00;;;31.20;;
79212;SDS011;68639;52.380;9.822;2023-10-09T06:13:59;83.25;;;31.33;;
79212;SDS011;68639;52.380;9.822;2023-10-09T06:16:37;74.80;;;30.55;;
79212;SDS011;68639;52.380;9.822;2023-10-09T06:19:21;66.22;;;29.35;;
79212;SDS011;68639;52.380;9.822;2023-10-09T06:21:58;73.05;;;30.25;;
79212;SDS011;68639;52.380;9.822;2023-10-09T06:24:42;71.90;;;28.88;;
79212;SDS011;68639;52.380;9.822;2023-10-09T06:27:07;68.38;;;28.92;;
79212;SDS011;68639;52.380;9.822;2023-10-09T06:29:49;75.63;;;30.65;;
79212;SDS011;68639;52.380;9.822;2023-10-09T06:32:14;73.85;;;30.52;;
79212;SDS011;68639;52.380;9.822;2023-10-09T06:34:57;75.57;;;31.42;;
79212;SDS011;68639;52.380;9.822;2023-10-09T06:37:45;73.53;;;30.10;;
79212;SDS011;68639;52.380;9.822;2023-10-09T06:40:29;72.60;;;29.77;;
79212;SDS011;68639;52.380;9.822;2023-10-09T06:43:12;74.93;;;30.17;;
79212;SDS011;68639;52.380;9.822;2023-10-09T06:45:50;75.82;;;29.88;;
79212;SDS011;68639;52.380;9.822;2023-10-09T06:48:34;84.80;;;30.98;;
79212;SDS011;68639;52.380;9.822;2023-10-09T06:51:02;86.45;;;32.08;;
79212;SDS011;68639;52.380;9.822;2023-10-09T06:53:46;83.55;;;31.98;;
79212;SDS011;68639;52.380;9.822;2023-10-09T06:56:11;68.47;;;29.50;;
79212;SDS011;68639;52.380;9.822;2023-10-09T06:58:48;79.85;;;30.90;;
79212;SDS011;68639;52.380;9.822;2023-10-09T07:01:13;67.57;;;29.23;;
79212;SDS011;68639;52.380;9.822;2023-10-09T07:04:11;73.68;;;30.08;;
79212;SDS011;68639;52.380;9.822;2023-10-09T07:07:05;76.43;;;30.00;;
79212;SDS011;68639;52.380;9.822;2023-10-09T07:09:39;74.18;;;29.55;;
79212;SDS011;68639;52.380;9.822;2023-10-09T07:12:08;75.80;;;29.70;;
79212;SDS011;68639;52.380;9.822;2023-10-09T07:14:34;71.00;;;28.65;;
79212;SDS011;68639;52.380;9.822;2023-10-09T07:17:01;67.32;;;28.73;;
79212;SDS011;68639;52.380;9.822;2023-10-09T07:19:26;61.33;;;26.27;;
79212;SDS011;68639;52.380;9.822;2023-10-09T07:22:20;74.03;;;29.85;;
79212;SDS011;68639;52.380;9.822;2023-10-09T07:24:46;77.00;;;30.83;;
79212;SDS011;68639;52.380;9.822;2023-10-09T07:27:17;74.85;;;28.52;;
79212;SDS011;68639;52.380;9.822;2023-10-09T07:29:52;88.35;;;32.33;;
79212;SDS011;68639;52.380;9.822;2023-10-09T07:32:17;78.22;;;29.60;;
79212;SDS011;68639;52.380;9.822;2023-10-09T07:34:49;68.32;;;27.95;;
79212;SDS011;68639;52.380;9.822;2023-10-09T07:37:18;88.05;;;31.30;;
79212;SDS011;68639;52.380;9.822;2023-10-09T07:39:44;84.20;;;31.70;;
79212;SDS011;68639;52.380;9.822;2023-10-09T07:42:18;86.25;;;32.05;;
79212;SDS011;68639;52.380;9.822;2023-10-09T07:45:12;79.03;;;31.10;;
79212;SDS011;68639;52.380;9.822;2023-10-09T07:47:58;78.13;;;30.77;;
79212;SDS011;68639;52.380;9.822;2023-10-09T07:50:27;67.30;;;28.40;;
79212;SDS011;68639;52.380;9.822;2023-10-09T07:53:05;75.45;;;30.85;;
79212;SDS011;68639;52.380;9.822;2023-10-09T07:55:40;73.20;;;30.95;;
79212;SDS011;68639;52.380;9.822;2023-10-09T07:58:10;78.30;;;31.48;;
79212;SDS011;68639;52.380;9.822;2023-10-09T08:00:36;70.57;;;30.27;;
79212;SDS011;68639;52.380;9.822;2023-10-09T08:03:02;79.75;;;32.90;;
79212;SDS011;68639;52.380;9.822;2023-10-09T08:05:28;79.57;;;31.02;;
79212;SDS011;68639;52.380;9.822;2023-10-09T08:07:58;72.45;;;29.85;;
79212;SDS011;68639;52.380;9.822;2023-10-09T08:10:43;78.28;;;30.92;;
79212;SDS011;68639;52.380;9.822;2023-10-09T08:13:28;68.50;;;28.60;;
79212;SDS011;68639;52.380;9.822;2023-10-09T08:16:14;80.22;;;31.23;;
79212;SDS011;68639;52.380;9.822;2023-10-09T08:18:46;71.72;;;29.15;;
79212;SDS011;68639;52.380;9.822;2023-10-09T08:21:11;79.57;;;29.98;;
79212;SDS011;68639;52.380;9.822;2023-10-09T08:23:40;66.93;;;28.00;;
79212;SDS011;68639;52.380;9.822;2023-10-09T08:26:15;66.80;;;27.83;;
79212;SDS011;68639;52.380;9.822;2023-10-09T08:28:42;64.85;;;27.85;;
79212;SDS011;68639;52.380;9.822;2023-10-09T08:31:11;63.30;;;28.35;;
79212;SDS011;68639;52.380;9.822;2023-10-09T08:33:55;55.38;;;24.15;;
79212;SDS011;68639;52.380;9.822;2023-10-09T08:36:26;58.10;;;25.48;;
79212;SDS011;68639;52.380;9.822;2023-10-09T08:38:56;56.65;;;25.30;;
79212;SDS011;68639;52.380;9.822;2023-10-09T08:41:26;51.80;;;24.42;;
79212;SDS011;68639;52.380;9.822;2023-10-09T08:43:55;60.63;;;26.45;;
79212;SDS011;68639;52.380;9.822;2023-10-09T08:46:26;41.25;;;21.27;;
79212;SDS011;68639;52.380;9.822;2023-10-09T08:48:55;46.67;;;22.60;;
79212;SDS011;68639;52.380;9.822;2023-10-09T08:51:20;53.13;;;23.88;;
79212;SDS011;68639;52.380;9.822;2023-10-09T08:53:46;41.97;;;22.65;;
79212;SDS011;68639;52.380;9.822;2023-10-09T08:56:16;40.63;;;22.00;;
79212;SDS011;68639;52.380;9.822;2023-10-09T08:58:47;39.70;;;21.45;;
79212;SDS011;68639;52.380;9.822;2023-10-09T09:01:15;51.50;;;22.90;;
79212;SDS011;68639;52.380;9.822;2023-10-09T09:03:42;39.92;;;19.88;;
79212;SDS011;68639;52.380;9.822;2023-10-09T09:06:10;40.42;;;19.95;;
79212;SDS011;68639;52.380;9.822;2023-10-09T09:08:37;37.78;;;19.92;;
79212;SDS011;68639;52.380;9.822;2023-10-09T09:11:15;40.95;;;18.40;;
79212;SDS011;68639;52.380;9.822;2023-10-09T09:13:43;35.83;;;18.33;;
79212;SDS011;68639;52.380;9.822;2023-10-09T09:16:15;37.83;;;17.80;;
79212;SDS011;68639;52.380;9.822;2023-10-09T09:18:55;34.42;;;17.50;;
79212;SDS011;68639;52.380;9.822;2023-10-09T09:21:50;33.40;;;16.42;;
79212;SDS011;68639;52.380;9.822;2023-10-09T09:24:19;30.90;;;15.88;;
79212;SDS011;68639;52.380;9.822;2023-10-09T09:27:01;31.50;;;15.43;;
79212;SDS011;68639;52.380;9.822;2023-10-09T09:29:43;28.88;;;14.40;;
79212;SDS011;68639;52.380;9.822;2023-10-09T09:32:17;32.17;;;15.27;;
79212;SDS011;68639;52.380;9.822;2023-10-09T09:34:43;28.42;;;15.27;;
79212;SDS011;68639;52.380;9.822;2023-10-09T09:37:10;32.65;;;17.13;;
79212;SDS011;68639;52.380;9.822;2023-10-09T09:39:38;33.38;;;16.08;;
79212;SDS011;68639;52.380;9.822;2023-10-09T09:42:08;37.38;;;17.63;;
79212;SDS011;68639;52.380;9.822;2023-10-09T09:44:38;50.63;;;20.58;;
79212;SDS011;68639;52.380;9.822;2023-10-09T09:47:13;56.35;;;23.45;;
79212;SDS011;68639;52.380;9.822;2023-10-09T09:49:42;53.92;;;23.77;;
79212;SDS011;68639;52.380;9.822;2023-10-09T09:52:08;54.30;;;22.58;;
79212;SDS011;68639;52.380;9.822;2023-10-09T09:54:37;55.67;;;24.85;;
79212;SDS011;68639;52.380;9.822;2023-10-09T09:57:03;59.65;;;25.35;;
79212;SDS011;68639;52.380;9.822;2023-10-09T09:59:33;56.08;;;25.25;;
79212;SDS011;68639;52.380;9.822;2023-10-09T10:02:05;59.30;;;27.85;;
79212;SDS011;68639;52.380;9.822;2023-10-09T10:04:31;81.03;;;29.20;;
79212;SDS011;68639;52.380;9.822;2023-10-09T10:07:00;61.05;;;27.15;;
79212;SDS011;68639;52.380;9.822;2023-10-09T10:09:38;64.60;;;27.20;;
79212;SDS011;68639;52.380;9.822;2023-10-09T10:12:04;47.85;;;23.58;;
79212;SDS011;68639;52.380;9.822;2023-10-09T10:14:51;43.97;;;20.88;;
79212;SDS011;68639;52.380;9.822;2023-10-09T10:17:17;60.05;;;27.50;;
79212;SDS011;68639;52.380;9.822;2023-10-09T10:20:02;56.70;;;27.88;;
79212;SDS011;68639;52.380;9.822;2023-10-09T10:22:39;61.30;;;27.15;;
79212;SDS011;68639;52.380;9.822;2023-10-09T10:25:04;62.90;;;28.08;;
79212;SDS011;68639;52.380;9.822;2023-10-09T10:27:34;66.18;;;30.52;;
79212;SDS011;68639;52.380;9.822;2023-10-09T10:35:17;57.35;;;27.10;;
79212;SDS011;68639;52.380;9.822;2023-10-09T10:37:45;63.50;;;27.30;;
79212;SDS011;68639;52.380;9.822;2023-10-09T10:40:26;50.70;;;25.02;;
79212;SDS011;68639;52.380;9.822;2023-10-09T10:43:04;56.13;;;26.42;;
79212;SDS011;68639;52.380;9.822;2023-10-09T10:45:38;51.05;;;25.95;;
79212;SDS011;68639;52.380;9.822;2023-10-09T10:48:09;50.35;;;25.83;;
79212;SDS011;68639;52.380;9.822;2023-10-09T10:50:47;47.90;;;23.98;;
79212;SDS011;68639;52.380;9.822;2023-10-09T10:53:13;50.90;;;23.85;;
79212;SDS011;68639;52.380;9.822;2023-10-09T10:56:00;42.10;;;21.25;;
79212;SDS011;68639;52.380;9.822;2023-10-09T10:58:37;37.47;;;20.60;;
79212;SDS011;68639;52.380;9.822;2023-10-09T11:01:03;38.70;;;20.55;;
79212;SDS011;68639;52.380;9.822;2023-10-09T11:03:40;36.83;;;20.92;;
79212;SDS011;68639;52.380;9.822;2023-10-09T11:06:26;46.17;;;25.65;;
79212;SDS011;68639;52.380;9.822;2023-10-09T11:09:01;47.33;;;23.88;;
79212;SDS011;68639;52.380;9.822;2023-10-09T11:11:34;38.03;;;21.98;;
79212;SDS011;68639;52.380;9.822;2023-10-09T11:14:09;37.75;;;21.40;;
79212;SDS011;68639;52.380;9.822;2023-10-09T11:16:39;37.40;;;22.17;;
79212;SDS011;68639;52.380;9.822;2023-10-09T11:19:13;39.00;;;22.05;;
79212;SDS011;68639;52.380;9.822;2023-10-09T11:21:55;39.55;;;21.75;;
79212;SDS011;68639;52.380;9.822;2023-10-09T11:24:25;37.28;;;21.75;;
79212;SDS011;68639;52.380;9.822;2023-10-09T11:26:50;39.97;;;22.52;;
79212;SDS011;68639;52.380;9.822;2023-10-09T11:29:24;35.08;;;20.77;;
79212;SDS011;68639;52.380;9.822;2023-10-09T11:32:03;31.45;;;17.40;;
79212;SDS011;68639;52.380;9.822;2023-10-09T11:34:32;32.80;;;20.17;;
79212;SDS011;68639;52.380;9.822;2023-10-09T11:39:27;36.42;;;21.50;;
79212;SDS011;68639;52.380;9.822;2023-10-09T11:42:15;40.83;;;22.77;;
79212;SDS011;68639;52.380;9.822;2023-10-09T11:44:55;41.50;;;23.35;;
79212;SDS011;68639;52.380;9.822;2023-10-09T11:47:20;40.35;;;23.02;;
79212;SDS011;68639;52.380;9.822;2023-10-09T11:49:55;42.78;;;23.42;;
79212;SDS011;68639;52.380;9.822;2023-10-09T11:52:28;38.70;;;23.95;;
79212;SDS011;68639;52.380;9.822;2023-10-09T11:54:57;42.22;;;24.83;;
79212;SDS011;68639;52.380;9.822;2023-10-09T11:57:23;43.33;;;25.30;;
79212;SDS011;68639;52.380;9.822;2023-10-09T11:59:55;50.05;;;27.55;;
79212;SDS011;68639;52.380;9.822;2023-10-09T12:02:20;44.55;;;25.63;;
79212;SDS011;68639;52.380;9.822;2023-10-09T12:04:46;39.33;;;24.00;;
79212;SDS011;68639;52.380;9.822;2023-10-09T12:07:11;42.53;;;24.63;;
79212;SDS011;68639;52.380;9.822;2023-10-09T12:09:37;37.67;;;23.15;;
79212;SDS011;68639;52.380;9.822;2023-10-09T12:12:03;37.20;;;22.60;;
79212;SDS011;68639;52.380;9.822;2023-10-09T12:14:28;34.60;;;23.42;;
79212;SDS011;68639;52.380;9.822;2023-10-09T12:16:58;35.72;;;22.48;;
79212;SDS011;68639;52.380;9.822;2023-10-09T12:19:24;39.05;;;23.67;;
79212;SDS011;68639;52.380;9.822;2023-10-09T12:21:49;39.03;;;23.45;;
79212;SDS011;68639;52.380;9.822;2023-10-09T12:24:14;39.67;;;22.02;;
79212;SDS011;68639;52.380;9.822;2023-10-09T12:26:43;42.72;;;23.27;;
79212;SDS011;68639;52.380;9.822;2023-10-09T12:29:10;38.80;;;22.10;;
79212;SDS011;68639;52.380;9.822;2023-10-09T12:31:36;40.67;;;24.08;;
79212;SDS011;68639;52.380;9.822;2023-10-09T12:34:01;38.15;;;22.58;;
79212;SDS011;68639;52.380;9.822;2023-10-09T12:36:27;43.13;;;23.73;;
79212;SDS011;68639;52.380;9.822;2023-10-09T12:38:52;43.63;;;23.10;;
79212;SDS011;68639;52.380;9.822;2023-10-09T12:41:24;45.90;;;25.33;;
79212;SDS011;68639;52.380;9.822;2023-10-09T12:43:53;43.88;;;25.45;;
79212;SDS011;68639;52.380;9.822;2023-10-09T12:46:18;42.72;;;24.65;;
79212;SDS011;68639;52.380;9.822;2023-10-09T12:48:48;49.78;;;26.65;;
79212;SDS011;68639;52.380;9.822;2023-10-09T12:51:13;46.72;;;24.63;;
79212;SDS011;68639;52.380;9.822;2023-10-09T12:53:45;41.80;;;23.42;;
79212;SDS011;68639;52.380;9.822;2023-10-09T12:56:10;49.15;;;26.15;;
79212;SDS011;68639;52.380;9.822;2023-10-09T12:58:37;42.83;;;25.52;;
79212;SDS011;68639;52.380;9.822;2023-10-09T13:01:02;45.85;;;25.67;;
79212;SDS011;68639;52.380;9.822;2023-10-09T13:03:34;37.95;;;23.52;;
79212;SDS011;68639;52.380;9.822;2023-10-09T13:06:03;34.45;;;22.52;;
79212;SDS011;68639;52.380;9.822;2023-10-09T13:08:32;36.03;;;22.00;;
79212;SDS011;68639;52.380;9.822;2023-10-09T13:11:07;42.65;;;25.08;;
79212;SDS011;68639;52.380;9.822;2023-10-09T13:13:36;30.90;;;19.55;;
79212;SDS011;68639;52.380;9.822;2023-10-09T13:16:12;32.33;;;20.65;;
79212;SDS011;68639;52.380;9.822;2023-10-09T13:18:41;34.63;;;19.75;;
79212;SDS011;68639;52.380;9.822;2023-10-09T13:21:14;30.00;;;18.65;;
79212;SDS011;68639;52.380;9.822;2023-10-09T13:23:40;29.02;;;18.58;;
79212;SDS011;68639;52.380;9.822;2023-10-09T13:26:07;28.75;;;18.17;;
79212;SDS011;68639;52.380;9.822;2023-10-09T13:28:50;27.83;;;17.77;;
79212;SDS011;68639;52.380;9.822;2023-10-09T13:31:20;34.83;;;18.33;;
79212;SDS011;68639;52.380;9.822;2023-10-09T13:33:54;28.20;;;18.50;;
79212;SDS011;68639;52.380;9.822;2023-10-09T13:36:20;31.00;;;18.02;;
79212;SDS011;68639;52.380;9.822;2023-10-09T13:38:59;29.45;;;18.83;;
79212;SDS011;68639;52.380;9.822;2023-10-09T13:41:43;27.67;;;17.77;;
79212;SDS011;68639;52.380;9.822;2023-10-09T13:44:08;31.70;;;19.13;;
79212;SDS011;68639;52.380;9.822;2023-10-09T13:46:34;27.88;;;17.85;;
79212;SDS011;68639;52.380;9.822;2023-10-09T13:49:06;30.35;;;19.63;;
79212;SDS011;68639;52.380;9.822;2023-10-09T13:51:37;33.22;;;19.75;;
79212;SDS011;68639;52.380;9.822;2023-10-09T13:54:02;29.83;;;18.98;;
79212;SDS011;68639;52.380;9.822;2023-10-09T13:56:32;30.92;;;19.63;;
79212;SDS011;68639;52.380;9.822;2023-10-09T13:58:57;30.70;;;19.03;;
79212;SDS011;68639;52.380;9.822;2023-10-09T14:01:22;32.60;;;19.05;;
79212;SDS011;68639;52.380;9.822;2023-10-09T14:03:57;31.25;;;20.05;;
79212;SDS011;68639;52.380;9.822;2023-10-09T14:06:23;28.55;;;17.92;;
79212;SDS011;68639;52.380;9.822;2023-10-09T14:08:59;29.38;;;18.65;;
79212;SDS011;68639;52.380;9.822;2023-10-09T14:11:25;29.88;;;18.65;;
79212;SDS011;68639;52.380;9.822;2023-10-09T14:13:51;29.10;;;19.35;;
79212;SDS011;68639;52.380;9.822;2023-10-09T14:16:17;29.95;;;19.48;;
79212;SDS011;68639;52.380;9.822;2023-10-09T14:18:51;29.42;;;19.33;;
79212;SDS011;68639;52.380;9.822;2023-10-09T14:21:22;24.15;;;16.83;;
79212;SDS011;68639;52.380;9.822;2023-10-09T14:23:50;33.33;;;21.23;;
79212;SDS011;68639;52.380;9.822;2023-10-09T14:26:15;31.80;;;20.02;;
79212;SDS011;68639;52.380;9.822;2023-10-09T14:28:43;29.83;;;18.30;;
79212;SDS011;68639;52.380;9.822;2023-10-09T14:31:08;24.20;;;17.33;;
79212;SDS011;68639;52.380;9.822;2023-10-09T14:33:37;27.85;;;17.88;;
79212;SDS011;68639;52.380;9.822;2023-10-09T14:36:02;25.77;;;16.92;;
79212;SDS011;68639;52.380;9.822;2023-10-09T14:38:30;28.38;;;18.17;;
79212;SDS011;68639;52.380;9.822;2023-10-09T14:40:58;30.75;;;18.45;;
79212;SDS011;68639;52.380;9.822;2023-10-09T14:43:24;27.98;;;18.08;;
79212;SDS011;68639;52.380;9.822;2023-10-09T14:45:53;27.25;;;16.40;;
79212;SDS011;68639;52.380;9.822;2023-10-09T14:48:19;23.77;;;15.45;;
79212;SDS011;68639;52.380;9.822;2023-10-09T14:50:50;30.75;;;17.38;;
79212;SDS011;68639;52.380;9.822;2023-10-09T14:53:21;31.85;;;17.50;;
79212;SDS011;68639;52.380;9.822;2023-10-09T14:55:53;27.80;;;17.42;;
79212;SDS011;68639;52.380;9.822;2023-10-09T14:58:19;25.42;;;16.90;;
79212;SDS011;68639;52.380;9.822;2023-10-09T15:00:44;28.02;;;20.73;;
79212;SDS011;68639;52.380;9.822;2023-10-09T15:03:12;25.05;;;16.95;;